Time;durP1;ratioP1;P1;durP2;ratioP2;P2;SDS_P1;SDS_P2;PMS_P1;PMS_P2;Temp;Humidity;BMP_temperature;BMP_pressure;BME280_temperature;BME280_humidity;BME280_pressure;Samples;Min_cycle;Max_cycle;Signal;HPM_P1;HPM_P2
2021/09/26 00:00:16;;;;;;;1999.90;999.90;;;18.60;99.90;;;;;;5015904;28;20404;-65
2021/09/26 00:02:42;;;;;;;1999.90;999.90;;;18.70;99.90;;;;;;5016026;28;20179;-64
2021/09/26 00:05:09;;;;;;;1999.90;999.90;;;18.70;99.90;;;;;;5015712;28;20409;-65
2021/09/26 00:07:36;;;;;;;1999.90;999.90;;;18.70;99.90;;;;;;5015944;28;20813;-66
2021/09/26 00:10:03;;;;;;;1999.90;999.90;;;18.70;99.90;;;;;;5015719;28;20458;-64
2021/09/26 00:12:28;;;;;;;1999.90;999.90;;;18.60;99.90;;;;;;5015899;28;20466;-65
2021/09/26 00:14:54;;;;;;;1999.90;999.90;;;18.60;99.90;;;;;;5015703;28;20403;-65
2021/09/26 00:17:19;;;;;;;1999.90;999.90;;;18.60;99.90;;;;;;5015775;28;20253;-65
2021/09/26 00:19:45;;;;;;;1999.90;999.90;;;18.70;99.90;;;;;;5015541;28;20186;-65
2021/09/26 00:22:11;;;;;;;1999.90;999.90;;;18.60;99.90;;;;;;5015810;28;20517;-65
2021/09/26 00:24:36;;;;;;;1999.90;999.90;;;18.60;99.90;;;;;;5014069;28;20215;-65
2021/09/26 00:27:03;;;;;;;1999.90;999.90;;;18.50;99.90;;;;;;5015499;28;20172;-64
2021/09/26 00:29:29;;;;;;;1999.90;999.90;;;18.30;99.90;;;;;;5015448;28;20288;-65
2021/09/26 00:31:55;;;;;;;1999.90;999.90;;;18.30;99.90;;;;;;5015393;28;20504;-65
2021/09/26 00:34:21;;;;;;;1999.90;999.90;;;18.30;99.90;;;;;;5015257;28;20416;-65
2021/09/26 00:36:46;;;;;;;1999.90;999.90;;;18.20;99.90;;;;;;5015460;28;20247;-65
2021/09/26 00:39:12;;;;;;;1999.90;999.90;;;18.30;99.90;;;;;;5015254;28;20218;-66
2021/09/26 00:41:37;;;;;;;1999.90;999.90;;;18.20;99.90;;;;;;5015257;28;20173;-65
2021/09/26 00:44:03;;;;;;;1999.90;999.90;;;18.30;99.90;;;;;;5015010;28;20638;-64
2021/09/26 00:46:29;;;;;;;1999.90;999.90;;;18.20;99.90;;;;;;5015271;28;20184;-64
2021/09/26 00:48:55;;;;;;;1999.90;999.90;;;18.40;99.90;;;;;;5015050;28;20745;-64
2021/09/26 00:51:20;;;;;;;1999.90;999.90;;;18.40;99.90;;;;;;5015214;28;20519;-65
2021/09/26 00:53:46;;;;;;;1999.90;999.90;;;18.40;99.90;;;;;;5014798;28;20246;-64
2021/09/26 00:56:12;;;;;;;1999.90;999.90;;;18.40;99.90;;;;;;5015102;28;20199;-66
2021/09/26 00:58:39;;;;;;;1999.90;999.90;;;18.40;99.90;;;;;;5014455;28;20746;-65
2021/09/26 01:01:07;;;;;;;1999.90;999.90;;;18.30;99.90;;;;;;5014070;28;20399;-65
2021/09/26 01:03:33;;;;;;;1999.90;999.90;;;18.20;99.90;;;;;;5014633;28;20412;-65
2021/09/26 01:06:34;;;;;;;1999.90;999.90;;;18.30;99.90;;;;;;5014778;28;20934;-65
2021/09/26 01:09:20;;;;;;;1999.90;999.90;;;18.30;99.90;;;;;;5014520;28;20264;-65
2021/09/26 01:12:19;;;;;;;1999.90;999.90;;;18.30;99.90;;;;;;5014803;28;20405;-65
2021/09/26 01:14:51;;;;;;;1999.90;999.90;;;18.40;99.90;;;;;;5014475;28;20410;-65
2021/09/26 01:17:21;;;;;;;1999.90;999.90;;;18.30;99.90;;;;;;5014629;28;20735;-65
2021/09/26 01:20:08;;;;;;;1999.90;999.90;;;18.30;99.90;;;;;;5014574;28;20487;-65
2021/09/26 01:22:51;;;;;;;1999.90;999.90;;;18.30;99.90;;;;;;5014595;28;20379;-65
2021/09/26 01:25:20;;;;;;;1999.90;999.90;;;18.30;99.90;;;;;;5014283;28;20831;-65
2021/09/26 01:28:27;;;;;;;1999.90;999.90;;;18.30;99.90;;;;;;5014553;28;20815;-65
2021/09/26 01:31:12;;;;;;;1999.90;999.90;;;18.30;99.90;;;;;;5003738;28;20427;-65
2021/09/26 01:33:48;;;;;;;1999.90;999.90;;;18.20;99.90;;;;;;5014056;28;20392;-65
2021/09/26 01:36:41;;;;;;;1999.90;999.90;;;18.20;99.90;;;;;;5014379;28;20399;-65
2021/09/26 01:39:15;;;;;;;1999.90;999.90;;;18.10;99.90;;;;;;5014097;28;20529;-65
2021/09/26 01:41:52;;;;;;;1999.90;999.90;;;18.20;99.90;;;;;;5014176;28;20404;-65
2021/09/26 01:44:56;;;;;;;1999.90;999.90;;;18.20;99.90;;;;;;5013896;28;20819;-65
2021/09/26 01:47:30;;;;;;;1999.90;999.90;;;18.30;99.90;;;;;;5013598;28;20413;-65
2021/09/26 01:50:06;;;;;;;1999.90;999.90;;;18.30;99.90;;;;;;5013910;28;20425;-65
2021/09/26 01:52:34;;;;;;;1999.90;999.90;;;18.40;99.90;;;;;;5013952;28;20448;-65
2021/09/26 01:55:04;;;;;;;1999.90;999.90;;;18.30;99.90;;;;;;5013579;28;20507;-65
2021/09/26 01:57:31;;;;;;;1999.90;999.90;;;18.40;99.90;;;;;;5013853;28;20403;-65
2021/09/26 01:59:59;;;;;;;1999.90;999.90;;;18.40;99.90;;;;;;5013753;28;20430;-65
2021/09/26 02:02:27;;;;;;;1999.90;999.90;;;18.40;99.90;;;;;;5013755;28;20823;-65
2021/09/26 02:04:59;;;;;;;1999.90;999.90;;;18.40;99.90;;;;;;5013467;28;20412;-64
2021/09/26 02:07:31;;;;;;;1999.90;999.90;;;18.40;99.90;;;;;;5013622;28;20402;-65
2021/09/26 02:09:59;;;;;;;1999.90;999.90;;;18.50;99.90;;;;;;5013378;28;20438;-65
2021/09/26 02:12:27;;;;;;;1999.90;999.90;;;18.40;99.90;;;;;;5013603;28;20995;-65
2021/09/26 02:14:53;;;;;;;1999.90;999.90;;;18.30;99.90;;;;;;5013208;28;20411;-65
2021/09/26 02:17:22;;;;;;;1999.90;999.90;;;18.40;99.90;;;;;;5013571;28;20756;-65
2021/09/26 02:19:50;;;;;;;1999.90;999.90;;;18.50;99.90;;;;;;5013502;28;20499;-66
2021/09/26 02:22:16;;;;;;;1999.90;999.90;;;18.50;99.90;;;;;;5013396;28;20402;-65
2021/09/26 02:24:42;;;;;;;1999.90;999.90;;;18.50;99.90;;;;;;5013026;28;20471;-65
2021/09/26 02:27:08;;;;;;;1999.90;999.90;;;18.50;99.90;;;;;;5013348;28;20445;-66
2021/09/26 02:29:35;;;;;;;1999.90;999.90;;;18.60;99.90;;;;;;5013099;28;20931;-65
2021/09/26 02:32:02;;;;;;;1999.90;999.90;;;18.60;99.90;;;;;;5013187;28;20667;-65
2021/09/26 02:34:28;;;;;;;1999.90;999.90;;;18.60;99.90;;;;;;5012954;28;20417;-65
2021/09/26 02:36:53;;;;;;;1999.90;999.90;;;18.70;99.90;;;;;;5013109;28;20408;-65
2021/09/26 02:39:19;;;;;;;1999.90;999.90;;;18.70;99.90;;;;;;5012984;28;20273;-65
2021/09/26 02:41:56;;;;;;;1999.90;999.90;;;18.70;99.90;;;;;;5013176;28;20173;-65
2021/09/26 02:44:46;;;;;;;1999.90;999.90;;;18.70;99.90;;;;;;5012717;28;20171;-65
2021/09/26 02:47:18;;;;;;;1999.90;999.90;;;18.70;99.90;;;;;;5013033;28;20503;-65
2021/09/26 02:49:44;;;;;;;1999.90;999.90;;;18.80;99.90;;;;;;5012899;28;20430;-65
2021/09/26 02:52:11;;;;;;;1999.90;999.90;;;18.80;99.90;;;;;;5012831;28;20872;-65
2021/09/26 02:54:40;;;;;;;1999.90;999.90;;;18.80;99.90;;;;;;5012491;28;20397;-66
2021/09/26 02:57:08;;;;;;;1999.90;999.90;;;18.90;99.90;;;;;;5012814;28;20450;-65
2021/09/26 02:59:35;;;;;;;1999.90;999.90;;;18.90;99.90;;;;;;5012864;28;20427;-65
2021/09/26 03:02:01;;;;;;;1999.90;999.90;;;18.90;99.90;;;;;;5012894;28;20404;-65
2021/09/26 03:04:27;;;;;;;1999.90;999.90;;;19.00;99.90;;;;;;5012555;28;21128;-65
2021/09/26 03:06:53;;;;;;;1999.90;999.90;;;19.00;99.90;;;;;;5012654;28;20425;-65
2021/09/26 03:09:19;;;;;;;1999.90;999.90;;;18.90;99.90;;;;;;5012266;28;20484;-65
2021/09/26 03:11:45;;;;;;;1999.90;999.90;;;18.80;99.90;;;;;;5012601;28;20497;-65
2021/09/26 03:14:11;;;;;;;1999.90;999.90;;;18.80;99.90;;;;;;5012485;28;20601;-64
2021/09/26 03:16:37;;;;;;;1999.90;999.90;;;18.80;99.90;;;;;;5012523;28;21027;-65
2021/09/26 03:19:02;;;;;;;1999.90;999.90;;;18.80;99.90;;;;;;5012408;28;20236;-65
2021/09/26 03:21:28;;;;;;;1999.90;999.90;;;18.70;99.90;;;;;;5012473;28;20296;-65
2021/09/26 03:23:55;;;;;;;1999.90;999.90;;;18.70;99.90;;;;;;5011386;28;20190;-65
2021/09/26 03:26:21;;;;;;;1999.90;999.90;;;18.70;99.90;;;;;;5012368;28;20197;-65
2021/09/26 03:28:47;;;;;;;1999.90;999.90;;;18.70;99.90;;;;;;5012316;28;20452;-65
2021/09/26 03:31:12;;;;;;;1999.90;999.90;;;18.70;99.90;;;;;;5012346;28;20263;-65
2021/09/26 03:33:38;;;;;;;1999.90;999.90;;;18.60;99.90;;;;;;5012010;28;20171;-66
2021/09/26 03:36:04;;;;;;;1999.90;999.90;;;18.70;99.90;;;;;;5012293;28;20202;-65
2021/09/26 03:38:30;;;;;;;1999.90;999.90;;;18.70;99.90;;;;;;5012171;28;20241;-65
2021/09/26 03:40:56;;;;;;;1999.90;999.90;;;18.70;99.90;;;;;;5012250;28;20413;-65
2021/09/26 03:43:22;;;;;;;1999.90;999.90;;;18.70;99.90;;;;;;5011824;28;20466;-65
2021/09/26 03:45:51;;;;;;;1999.90;999.90;;;18.70;99.90;;;;;;5012213;28;20266;-65
2021/09/26 03:48:18;;;;;;;1999.90;999.90;;;18.60;99.90;;;;;;5012063;28;21024;-65
2021/09/26 03:50:44;;;;;;;1999.90;999.90;;;18.70;99.90;;;;;;5012120;28;20419;-65
2021/09/26 03:53:10;;;;;;;1999.90;999.90;;;18.70;99.90;;;;;;5011816;28;20406;-66
2021/09/26 03:55:36;;;;;;;1999.90;999.90;;;18.70;99.90;;;;;;5012193;28;20171;-65
2021/09/26 03:58:01;;;;;;;1999.90;999.90;;;18.60;99.90;;;;;;5012096;28;20556;-65
2021/09/26 04:00:27;;;;;;;1999.90;999.90;;;18.60;99.90;;;;;;5012041;28;20214;-65
2021/09/26 04:02:53;;;;;;;1999.90;999.90;;;18.60;99.90;;;;;;5012010;28;20644;-66
2021/09/26 04:05:18;;;;;;;1999.90;999.90;;;18.60;99.90;;;;;;5011671;28;20212;-65
2021/09/26 04:07:44;;;;;;;1999.90;999.90;;;18.60;99.90;;;;;;5012218;28;20204;-65
2021/09/26 04:10:10;;;;;;;1999.90;999.90;;;18.50;99.90;;;;;;5011874;28;20258;-65
2021/09/26 04:12:36;;;;;;;1999.90;999.90;;;18.50;99.90;;;;;;5011930;28;20195;-65
2021/09/26 04:15:04;;;;;;;1999.90;999.90;;;18.40;99.90;;;;;;5011667;28;20400;-65
2021/09/26 04:17:30;;;;;;;1999.90;999.90;;;18.30;99.90;;;;;;5014644;28;20413;-64
2021/09/26 04:19:55;;;;;;;1999.90;999.90;;;18.30;99.90;;;;;;5016270;28;20428;-65
2021/09/26 04:22:21;;;;;;;1999.90;999.90;;;18.30;99.90;;;;;;5017527;28;20682;-65
2021/09/26 04:24:46;;;;;;;1999.90;999.90;;;18.30;99.90;;;;;;5018003;28;20194;-65
2021/09/26 04:27:12;;;;;;;1999.90;999.90;;;18.40;99.90;;;;;;5017585;28;20676;-65
2021/09/26 04:29:38;;;;;;;1999.90;999.90;;;18.40;99.90;;;;;;5017214;28;20209;-64
2021/09/26 04:32:04;;;;;;;1999.90;999.90;;;18.40;99.90;;;;;;5017253;28;20255;-64
2021/09/26 04:34:29;;;;;;;1999.90;999.90;;;18.40;99.90;;;;;;5019078;28;20184;-65
2021/09/26 04:36:56;;;;;;;1999.90;999.90;;;18.40;99.90;;;;;;5020810;28;20408;-66
2021/09/26 04:39:21;;;;;;;1999.90;999.90;;;18.40;99.90;;;;;;5020989;28;20205;-65
2021/09/26 04:41:47;;;;;;;1999.90;999.90;;;18.40;99.90;;;;;;5020792;28;20420;-65
2021/09/26 04:44:13;;;;;;;1999.90;999.90;;;18.40;99.90;;;;;;5019798;28;20208;-65
2021/09/26 04:46:38;;;;;;;1999.90;999.90;;;18.40;99.90;;;;;;5023862;28;20191;-64
2021/09/26 04:49:04;;;;;;;1999.90;999.90;;;18.30;99.90;;;;;;5025612;28;20229;-64
2021/09/26 04:51:30;;;;;;;1999.90;999.90;;;18.30;99.90;;;;;;5026101;28;20237;-64
2021/09/26 04:53:56;;;;;;;1999.90;999.90;;;18.30;99.90;;;;;;5025510;28;20577;-64
2021/09/26 04:56:21;;;;;;;1999.90;999.90;;;18.30;99.90;;;;;;5024223;28;20444;-65
2021/09/26 04:58:47;;;;;;;1999.90;999.90;;;18.20;99.90;;;;;;5021845;28;20191;-65
2021/09/26 05:01:13;;;;;;;1999.90;999.90;;;18.30;99.90;;;;;;5021413;28;20166;-65
2021/09/26 05:03:39;;;;;;;1999.90;999.90;;;18.30;99.90;;;;;;5021246;28;20181;-65
2021/09/26 05:06:04;;;;;;;1999.90;999.90;;;18.20;99.90;;;;;;5022074;28;20245;-65
2021/09/26 05:08:30;;;;;;;1999.90;999.90;;;18.20;99.90;;;;;;5021690;28;20459;-65
2021/09/26 05:10:56;;;;;;;1999.90;999.90;;;18.30;99.90;;;;;;5022263;28;20176;-65
2021/09/26 05:13:21;;;;;;;1999.90;999.90;;;18.30;99.90;;;;;;5021156;28;20652;-65
2021/09/26 05:15:47;;;;;;;1999.90;999.90;;;18.30;99.90;;;;;;5020058;28;20324;-64
2021/09/26 05:18:13;;;;;;;1999.90;999.90;;;18.30;99.90;;;;;;5019962;28;20181;-65
2021/09/26 05:20:39;;;;;;;1999.90;999.90;;;18.30;99.90;;;;;;5019814;28;20555;-64
2021/09/26 05:23:04;;;;;;;1999.90;999.90;;;18.30;99.90;;;;;;5020727;28;20459;-64
2021/09/26 05:25:31;;;;;;;1999.90;999.90;;;18.30;99.90;;;;;;5022378;28;20172;-65
2021/09/26 05:27:56;;;;;;;1999.90;999.90;;;18.40;99.90;;;;;;5021758;28;20199;-65
2021/09/26 05:30:22;;;;;;;1999.90;999.90;;;18.30;99.90;;;;;;5021762;28;20460;-64
2021/09/26 05:32:50;;;;;;;1999.90;999.90;;;18.30;99.90;;;;;;5021079;28;20177;-65
2021/09/26 05:35:16;;;;;;;1999.90;999.90;;;18.20;99.90;;;;;;5021352;28;20177;-65
2021/09/26 05:37:42;;;;;;;1999.90;999.90;;;18.10;99.90;;;;;;5021013;28;20902;-65
2021/09/26 05:40:08;;;;;;;1999.90;999.90;;;18.10;99.90;;;;;;5021660;28;20196;-65
2021/09/26 05:42:33;;;;;;;1999.90;999.90;;;18.10;99.90;;;;;;5021185;28;20178;-64
2021/09/26 05:44:59;;;;;;;1999.90;999.90;;;18.00;99.90;;;;;;5019566;28;20409;-65
2021/09/26 05:47:25;;;;;;;1999.90;999.90;;;18.00;99.90;;;;;;5020322;28;20171;-65
2021/09/26 05:49:51;;;;;;;1999.90;999.90;;;17.90;99.90;;;;;;5020154;28;20521;-66
2021/09/26 05:52:16;;;;;;;1999.90;999.90;;;17.80;99.90;;;;;;5020309;28;20180;-65
2021/09/26 05:54:42;;;;;;;1999.90;999.90;;;17.80;99.90;;;;;;5020375;28;20168;-65
2021/09/26 05:57:09;;;;;;;1999.90;999.90;;;17.80;99.90;;;;;;5020140;28;20198;-64
2021/09/26 05:59:38;;;;;;;1999.90;999.90;;;17.80;99.90;;;;;;5019817;28;20763;-65
2021/09/26 06:02:10;;;;;;;1999.90;999.90;;;17.70;99.90;;;;;;5019382;28;20419;-64
2021/09/26 06:04:36;;;;;;;1999.90;999.90;;;17.60;99.90;;;;;;5019301;28;20435;-66
2021/09/26 06:07:02;;;;;;;1999.90;999.90;;;17.60;99.90;;;;;;5019339;28;20898;-65
2021/09/26 06:09:28;;;;;;;1999.90;999.90;;;17.60;99.90;;;;;;5018902;28;20211;-66
2021/09/26 06:11:54;;;;;;;1999.90;999.90;;;17.50;99.90;;;;;;5018710;28;20419;-65
2021/09/26 06:14:20;;;;;;;1999.90;999.90;;;17.50;99.90;;;;;;5018748;28;20159;-65
2021/09/26 06:16:45;;;;;;;1999.90;999.90;;;17.40;99.90;;;;;;5019082;28;20466;-65
2021/09/26 06:19:11;;;;;;;1999.90;999.90;;;17.40;99.90;;;;;;5019601;28;20201;-64
2021/09/26 06:21:37;;;;;;;1999.90;999.90;;;17.50;99.90;;;;;;5020984;28;20188;-64
2021/09/26 06:24:02;;;;;;;1999.90;999.90;;;17.50;99.90;;;;;;5020413;28;20545;-66
2021/09/26 06:26:28;;;;;;;1999.90;999.90;;;17.60;99.90;;;;;;5020939;28;20739;-65
2021/09/26 06:28:53;;;;;;;1999.90;999.90;;;17.60;99.90;;;;;;5020065;28;20228;-65
2021/09/26 06:31:19;;;;;;;1999.90;999.90;;;17.70;99.90;;;;;;5018132;28;20176;-65
2021/09/26 06:33:45;;;;;;;1999.90;999.90;;;17.80;99.90;;;;;;5019163;28;20177;-65
2021/09/26 06:36:11;;;;;;;1999.90;999.90;;;17.90;99.90;;;;;;5018251;28;20176;-64
2021/09/26 06:38:36;;;;;;;1999.90;999.90;;;17.90;99.90;;;;;;5018956;28;20432;-65
2021/09/26 06:41:02;;;;;;;1999.90;999.90;;;18.00;99.90;;;;;;5019146;28;20255;-65
2021/09/26 06:43:28;;;;;;;1999.90;999.90;;;18.10;99.90;;;;;;5018564;28;20226;-65
2021/09/26 06:45:53;;;;;;;1999.90;999.90;;;18.20;99.90;;;;;;5018753;28;20176;-64
2021/09/26 06:48:19;;;;;;;1999.90;999.90;;;18.30;99.90;;;;;;5018739;28;20211;-64
2021/09/26 06:50:46;;;;;;;1999.90;999.90;;;18.40;99.90;;;;;;5019448;28;20171;-65
2021/09/26 06:53:12;;;;;;;1999.90;999.90;;;18.50;99.90;;;;;;5019018;28;20177;-66
2021/09/26 06:55:37;;;;;;;1999.90;999.90;;;18.60;99.90;;;;;;5018399;28;20401;-65
2021/09/26 06:58:03;;;;;;;1999.90;999.90;;;18.70;99.90;;;;;;5017472;28;20182;-66
2021/09/26 07:00:28;;;;;;;1999.90;999.90;;;18.70;99.90;;;;;;5017690;28;20216;-65
2021/09/26 07:02:54;;;;;;;1999.90;999.90;;;18.80;99.90;;;;;;5018196;28;20593;-65
2021/09/26 07:05:21;;;;;;;1999.90;999.90;;;18.80;99.90;;;;;;5018370;28;20542;-65
2021/09/26 07:07:47;;;;;;;1999.90;999.90;;;18.90;99.90;;;;;;5018512;28;20174;-66
2021/09/26 07:10:13;;;;;;;1999.90;999.90;;;18.90;99.90;;;;;;5019019;28;20976;-66
2021/09/26 07:12:39;;;;;;;1999.90;999.90;;;18.90;99.90;;;;;;5019090;28;20532;-65
2021/09/26 07:15:07;;;;;;;1999.90;999.90;;;19.00;99.90;;;;;;5018258;28;20415;-65
2021/09/26 07:17:32;;;;;;;1999.90;999.90;;;19.10;99.90;;;;;;5018837;28;20164;-65
2021/09/26 07:19:58;;;;;;;1999.90;999.90;;;19.20;99.90;;;;;;5019499;28;20461;-64
2021/09/26 07:22:24;;;;;;;1999.90;999.90;;;19.20;99.90;;;;;;5018940;28;20222;-64
2021/09/26 07:24:52;;;;;;;1999.90;999.90;;;19.30;99.90;;;;;;5019148;28;20176;-66
2021/09/26 07:27:19;;;;;;;1999.90;999.90;;;19.40;99.90;;;;;;5019815;28;20176;-64
2021/09/26 07:29:45;;;;;;;1999.90;999.90;;;19.40;99.90;;;;;;5020250;28;20465;-64
2021/09/26 07:32:12;;;;;;;1999.90;999.90;;;19.50;99.90;;;;;;5021261;28;20413;-64
2021/09/26 07:34:38;;;;;;;1999.90;999.90;;;19.60;99.90;;;;;;5022166;28;20164;-66
2021/09/26 07:37:04;;;;;;;1999.90;999.90;;;19.70;99.90;;;;;;5023525;28;20417;-65
2021/09/26 07:39:30;;;;;;;1999.90;999.90;;;19.70;99.90;;;;;;5023796;28;20264;-65
2021/09/26 07:41:56;;;;;;;1999.90;999.90;;;19.80;99.90;;;;;;5023740;28;20382;-65
2021/09/26 07:44:21;;;;;;;1999.90;999.90;;;19.80;99.90;;;;;;5022714;28;20415;-66
2021/09/26 07:46:47;;;;;;;1999.90;999.90;;;19.90;99.90;;;;;;5022546;28;20175;-65
2021/09/26 07:49:13;;;;;;;1999.90;999.90;;;19.90;99.90;;;;;;5021394;28;20205;-64
2021/09/26 07:51:39;;;;;;;1999.90;999.90;;;19.90;99.90;;;;;;5022755;28;20171;-64
2021/09/26 07:54:04;;;;;;;1999.90;999.90;;;20.00;99.90;;;;;;5022975;28;20407;-65
2021/09/26 07:56:31;;;;;;;1999.90;999.90;;;20.10;99.90;;;;;;5022999;28;20175;-64
2021/09/26 07:58:57;;;;;;;1999.90;999.90;;;20.10;99.90;;;;;;5023008;28;20265;-66
2021/09/26 08:01:22;;;;;;;1999.90;999.90;;;20.20;99.90;;;;;;5022735;28;20419;-66
2021/09/26 08:03:48;;;;;;;1999.90;999.90;;;20.30;99.90;;;;;;5022158;28;20193;-65
2021/09/26 08:06:14;;;;;;;1999.90;999.90;;;20.40;99.90;;;;;;5022855;28;20173;-64
2021/09/26 08:08:40;;;;;;;1999.90;999.90;;;20.50;99.90;;;;;;5022099;28;20570;-66
2021/09/26 08:11:06;;;;;;;1999.90;999.90;;;20.60;99.90;;;;;;5026161;28;20399;-66
2021/09/26 08:13:31;;;;;;;1999.90;999.90;;;20.70;99.90;;;;;;5024396;28;20465;-64
2021/09/26 08:15:57;;;;;;;1999.90;999.90;;;20.80;99.90;;;;;;5025712;28;20570;-65
2021/09/26 08:18:23;;;;;;;1999.90;999.90;;;20.80;99.90;;;;;;5024569;28;20162;-66
2021/09/26 08:20:48;;;;;;;1999.90;999.90;;;20.90;99.90;;;;;;5023063;28;20169;-65
2021/09/26 08:23:14;;;;;;;1999.90;999.90;;;21.00;99.90;;;;;;5021170;28;20248;-65
2021/09/26 08:25:40;;;;;;;1999.90;999.90;;;21.10;99.90;;;;;;5023409;28;20204;-65
2021/09/26 08:28:05;;;;;;;1999.90;999.90;;;21.30;99.90;;;;;;5022538;28;20208;-65
2021/09/26 08:30:31;;;;;;;1999.90;999.90;;;21.40;99.90;;;;;;5023138;28;20187;-66
2021/09/26 08:32:57;;;;;;;1999.90;999.90;;;21.50;99.90;;;;;;5018277;28;20273;-65
2021/09/26 08:35:22;;;;;;;1999.90;999.90;;;21.50;99.90;;;;;;5002125;28;20254;-65
2021/09/26 08:37:49;;;;;;;1999.90;999.90;;;21.60;99.90;;;;;;5001983;28;20170;-65
2021/09/26 08:40:15;;;;;;;1999.90;999.90;;;21.70;99.90;;;;;;5001463;28;20221;-66
2021/09/26 08:42:41;;;;;;;1999.90;999.90;;;21.70;99.90;;;;;;5002779;28;20401;-65
2021/09/26 08:45:12;;;;;;;1999.90;999.90;;;21.80;99.90;;;;;;4997726;28;20187;-65
2021/09/26 08:47:39;;;;;;;1999.90;999.90;;;21.90;99.90;;;;;;4995698;28;20365;-65
2021/09/26 08:50:08;;;;;;;1999.90;999.90;;;22.00;99.90;;;;;;4995681;28;20401;-65
2021/09/26 08:52:33;;;;;;;1999.90;999.90;;;22.20;99.90;;;;;;4995687;28;20419;-65
2021/09/26 08:54:59;;;;;;;1999.90;999.90;;;22.30;99.90;;;;;;4995389;28;20854;-65
2021/09/26 08:57:26;;;;;;;1999.90;999.90;;;22.30;99.90;;;;;;4995616;28;20567;-65
2021/09/26 08:59:52;;;;;;;1999.90;999.90;;;22.30;99.90;;;;;;4995616;28;20207;-65
2021/09/26 09:02:18;;;;;;;1999.90;999.90;;;22.40;99.90;;;;;;4995516;28;20422;-65
2021/09/26 09:04:44;;;;;;;1999.90;999.90;;;22.40;99.90;;;;;;5000221;28;20788;-66
2021/09/26 09:07:11;;;;;;;1999.90;999.90;;;22.50;99.90;;;;;;5014421;28;20169;-67
2021/09/26 09:10:01;;;;;;;1999.90;999.90;;;22.50;99.90;;;;;;5014167;28;20301;-66
2021/09/26 09:12:33;;;;;;;1999.90;999.90;;;22.50;99.90;;;;;;5014560;28;20420;-66
2021/09/26 09:15:13;;;;;;;1999.90;999.90;;;22.60;99.90;;;;;;5014056;28;20391;-66
2021/09/26 09:17:41;;;;;;;1999.90;999.90;;;22.60;99.90;;;;;;5014032;28;20423;-66
2021/09/26 09:20:14;;;;;;;1999.90;999.90;;;22.80;99.90;;;;;;5012619;28;20430;-66
2021/09/26 09:22:41;;;;;;;1999.90;999.90;;;22.90;99.90;;;;;;5014361;28;20796;-66
2021/09/26 09:25:08;;;;;;;1999.90;999.90;;;22.90;99.90;;;;;;5013966;28;20457;-67
2021/09/26 09:27:35;;;;;;;1999.90;999.90;;;23.00;99.90;;;;;;5013970;28;20435;-67
2021/09/26 09:30:04;;;;;;;1999.90;999.90;;;23.10;99.90;;;;;;5014012;28;20460;-66
2021/09/26 09:32:30;;;;;;;1999.90;999.90;;;23.20;99.90;;;;;;5014043;28;20389;-66
2021/09/26 09:34:56;;;;;;;1999.90;999.90;;;23.20;99.90;;;;;;5013737;28;20427;-66
2021/09/26 09:37:26;;;;;;;1999.90;999.90;;;23.30;99.90;;;;;;5010550;28;20522;-66
2021/09/26 09:40:11;;;;;;;1999.90;999.90;;;23.40;99.90;;;;;;5012698;28;20188;-67
2021/09/26 09:42:46;;;;;;;1999.90;999.90;;;23.50;99.90;;;;;;5013758;28;20389;-66
2021/09/26 09:45:20;;;;;;;1999.90;999.90;;;23.50;99.90;;;;;;5013153;28;20397;-67
2021/09/26 09:47:55;;;;;;;1999.90;999.90;;;23.50;99.90;;;;;;5013152;28;20413;-67
2021/09/26 09:50:26;;;;;;;1999.90;999.90;;;23.50;99.90;;;;;;5013608;28;20811;-65
2021/09/26 09:52:54;;;;;;;1999.90;999.90;;;23.60;99.90;;;;;;5013406;28;20473;-65
2021/09/26 09:55:19;;;;;;;1999.90;999.90;;;23.70;99.90;;;;;;5013151;28;20418;-65
2021/09/26 09:57:46;;;;;;;1999.90;999.90;;;23.80;99.90;;;;;;5013631;28;20458;-65
2021/09/26 10:00:22;;;;;;;1999.90;999.90;;;24.00;99.90;;;;;;5013086;28;20431;-65
2021/09/26 10:02:48;;;;;;;1999.90;999.90;;;24.10;99.90;;;;;;5013427;28;20370;-65
2021/09/26 10:05:33;;;;;;;1999.90;999.90;;;24.10;99.90;;;;;;5013412;28;20415;-65
2021/09/26 10:07:59;;;;;;;1999.90;999.90;;;24.00;99.90;;;;;;5012435;28;20193;-64
2021/09/26 10:10:33;;;;;;;1999.90;999.90;;;23.90;99.90;;;;;;5016786;28;20431;-66
2021/09/26 10:13:13;;;;;;;1999.90;999.90;;;23.90;99.90;;;;;;5017789;28;20383;-65
2021/09/26 10:15:40;;;;;;;1999.90;999.90;;;23.90;99.90;;;;;;5017704;28;20399;-65
2021/09/26 10:18:06;;;;;;;1999.90;999.90;;;24.00;99.90;;;;;;5017985;28;20414;-65
2021/09/26 10:20:32;;;;;;;1999.90;999.90;;;24.10;99.90;;;;;;5017202;28;20422;-65
2021/09/26 10:22:58;;;;;;;1999.90;999.90;;;24.10;99.90;;;;;;5018515;28;20408;-65
2021/09/26 10:25:25;;;;;;;1999.90;999.90;;;24.20;99.90;;;;;;5017327;28;20427;-65
2021/09/26 10:27:52;;;;;;;1999.90;999.90;;;24.30;99.90;;;;;;5016745;28;20412;-64
2021/09/26 10:30:18;;;;;;;1999.90;999.90;;;24.30;99.90;;;;;;5016525;28;20904;-66
2021/09/26 10:32:44;;;;;;;1999.90;999.90;;;24.40;99.90;;;;;;5016597;28;20462;-65
2021/09/26 10:35:10;;;;;;;1999.90;999.90;;;24.40;99.90;;;;;;5016794;28;20173;-66
2021/09/26 10:37:38;;;;;;;1999.90;999.90;;;24.40;99.90;;;;;;5016778;28;20461;-65
2021/09/26 10:40:04;;;;;;;1999.90;999.90;;;24.40;99.90;;;;;;5017108;28;20184;-65
2021/09/26 10:42:36;;;;;;;1999.90;999.90;;;24.50;99.90;;;;;;5017633;28;20375;-65
2021/09/26 10:45:04;;;;;;;1999.90;999.90;;;24.50;99.90;;;;;;5016983;28;20396;-65
2021/09/26 10:47:32;;;;;;;1999.90;999.90;;;24.40;99.90;;;;;;5016300;28;20404;-65
2021/09/26 10:50:01;;;;;;;1999.90;999.90;;;24.40;99.90;;;;;;5016382;28;20469;-65
2021/09/26 10:52:43;;;;;;;1999.90;999.90;;;24.30;99.90;;;;;;5015594;28;20379;-64
2021/09/26 10:55:15;;;;;;;1999.90;999.90;;;24.40;99.90;;;;;;5011922;28;20407;-66
2021/09/26 10:57:42;;;;;;;1999.90;999.90;;;24.30;99.90;;;;;;5011614;28;20403;-65
2021/09/26 11:00:09;;;;;;;1999.90;999.90;;;24.10;99.90;;;;;;5012106;28;20518;-65
2021/09/26 11:02:37;;;;;;;1999.90;999.90;;;23.90;99.90;;;;;;5012297;28;20458;-65
2021/09/26 11:05:05;;;;;;;1999.90;999.90;;;23.60;99.90;;;;;;5011624;28;20389;-65
2021/09/26 11:07:33;;;;;;;1999.90;999.90;;;23.60;99.90;;;;;;5012560;28;20501;-65
2021/09/26 11:10:06;;;;;;;1999.90;999.90;;;23.50;99.90;;;;;;5012036;28;20437;-65
2021/09/26 11:12:43;;;;;;;1999.90;999.90;;;23.40;99.90;;;;;;5012038;28;20410;-65
2021/09/26 11:15:21;;;;;;;1999.90;999.90;;;23.30;99.90;;;;;;5012121;28;20718;-65
2021/09/26 11:17:48;;;;;;;1999.90;999.90;;;23.20;99.90;;;;;;5012284;28;20389;-65
2021/09/26 11:20:26;;;;;;;1999.90;999.90;;;23.20;99.90;;;;;;5012132;28;20498;-65
2021/09/26 11:23:07;;;;;;;1999.90;999.90;;;23.10;99.90;;;;;;5012120;28;20406;-65
2021/09/26 11:26:03;;;;;;;1999.90;999.90;;;23.10;99.90;;;;;;5012061;28;20416;-66
2021/09/26 11:28:34;;;;;;;1999.90;999.90;;;23.20;99.90;;;;;;5011601;28;20488;-66
2021/09/26 11:31:29;;;;;;;1999.90;999.90;;;23.20;99.90;;;;;;5012179;28;20781;-65
2021/09/26 11:33:59;;;;;;;1999.90;999.90;;;23.10;99.90;;;;;;4998740;28;20480;-64
2021/09/26 11:36:27;;;;;;;1999.90;999.90;;;23.10;99.90;;;;;;5011536;28;20909;-64
2021/09/26 11:38:54;;;;;;;1999.90;999.90;;;23.10;99.90;;;;;;5011751;28;20402;-64
2021/09/26 11:41:38;;;;;;;1999.90;999.90;;;23.20;99.90;;;;;;5011958;28;20542;-65
2021/09/26 11:44:07;;;;;;;1999.90;999.90;;;23.30;99.90;;;;;;5010994;28;20377;-65
2021/09/26 11:46:33;;;;;;;1999.90;999.90;;;23.40;99.90;;;;;;5012169;28;20771;-65
2021/09/26 11:49:02;;;;;;;1999.90;999.90;;;23.50;99.90;;;;;;5011687;28;20438;-65
2021/09/26 11:51:28;;;;;;;1999.90;999.90;;;23.60;99.90;;;;;;5011442;28;20398;-65
2021/09/26 11:53:54;;;;;;;1999.90;999.90;;;23.70;99.90;;;;;;5011569;28;20403;-65
2021/09/26 11:56:29;;;;;;;1999.90;999.90;;;23.70;99.90;;;;;;5011605;28;20164;-65
2021/09/26 11:59:01;;;;;;;1999.90;999.90;;;23.80;99.90;;;;;;5011296;28;20215;-65
2021/09/26 12:01:38;;;;;;;1999.90;999.90;;;23.90;99.90;;;;;;5011620;28;20406;-65
2021/09/26 12:04:08;;;;;;;1999.90;999.90;;;24.00;99.90;;;;;;5011175;28;20394;-66